Time;durP1;ratioP1;P1;durP2;ratioP2;P2;SDS_P1;SDS_P2;PMS_P1;PMS_P2;Temp;Humidity;BMP_temperature;BMP_pressure;BME280_temperature;BME280_humidity;BME280_pressure;Samples;Min_cycle;Max_cycle;Signal;HPM_P1;HPM_P2
2022/07/19 00:01:51;;;;;;;4.30;2.60;;;;;;;30.21;26.18;101462.69;5068868;28;20054;-71
2022/07/19 00:04:20;;;;;;;6.22;2.88;;;;;;;30.18;26.14;101461.16;5067934;28;20117;-71
2022/07/19 00:06:49;;;;;;;5.57;2.75;;;;;;;30.12;26.10;101455.56;5080579;28;20054;-72
2022/07/19 00:09:17;;;;;;;5.07;2.65;;;;;;;30.08;25.96;101448.66;5068004;28;20052;-71
2022/07/19 00:11:45;;;;;;;4.70;2.25;;;;;;;30.05;26.01;101455.56;5078621;28;20040;-71
2022/07/19 00:14:12;;;;;;;4.38;2.88;;;;;;;30.01;25.76;101448.66;5068437;28;20036;-71
2022/07/19 00:16:40;;;;;;;4.40;2.75;;;;;;;29.98;26.02;101449.09;5051951;28;20053;-71
2022/07/19 00:19:08;;;;;;;5.00;2.88;;;;;;;29.94;26.03;101449.75;5078770;28;20047;-72
2022/07/19 00:21:38;;;;;;;4.57;2.58;;;;;;;29.92;26.12;101449.94;5060086;28;20048;-72
2022/07/19 00:24:06;;;;;;;6.03;2.55;;;;;;;29.86;26.13;101446.06;5067851;28;20044;-71
2022/07/19 00:26:34;;;;;;;4.53;2.42;;;;;;;29.81;26.18;101433.78;5073741;28;20059;-71
2022/07/19 00:29:02;;;;;;;4.28;2.85;;;;;;;29.78;26.43;101439.81;5066813;28;20127;-71
2022/07/19 00:31:30;;;;;;;4.97;2.80;;;;;;;29.74;26.54;101436.56;5065097;28;20052;-71
2022/07/19 00:33:59;;;;;;;4.70;2.40;;;;;;;29.71;26.36;101439.81;5064912;28;20049;-71
2022/07/19 00:36:26;;;;;;;5.50;2.58;;;;;;;29.68;26.75;101442.16;5068622;28;20040;-71
2022/07/19 00:38:56;;;;;;;6.22;2.80;;;;;;;29.66;26.63;101439.56;5067134;28;20061;-71
2022/07/19 00:41:24;;;;;;;4.15;2.42;;;;;;;29.62;26.75;101435.50;5067912;28;20041;-71
2022/07/19 00:43:52;;;;;;;4.70;2.65;;;;;;;29.58;27.02;101431.38;5067741;28;20455;-71
2022/07/19 00:46:22;;;;;;;4.28;2.35;;;;;;;29.57;26.69;101428.81;5072329;28;20127;-72
2022/07/19 00:48:51;;;;;;;3.90;2.38;;;;;;;29.52;26.87;101423.84;5067075;28;20225;-72
2022/07/19 00:51:19;;;;;;;5.25;2.70;;;;;;;29.49;26.81;101433.50;5080311;28;20055;-71
2022/07/19 00:53:47;;;;;;;3.83;2.30;;;;;;;29.46;26.66;101425.56;5049478;28;20131;-72
2022/07/19 00:56:18;;;;;;;3.22;2.20;;;;;;;29.47;26.88;101418.03;5049338;28;20055;-71
2022/07/19 00:58:49;;;;;;;4.68;2.63;;;;;;;29.45;26.91;101425.78;5073096;28;20044;-71
2022/07/19 01:01:19;;;;;;;3.93;2.60;;;;;;;29.39;26.99;101426.63;5069730;28;20044;-71
2022/07/19 01:03:48;;;;;;;4.15;2.47;;;;;;;29.39;27.07;101429.44;5051585;28;20381;-72
2022/07/19 01:06:16;;;;;;;4.82;2.50;;;;;;;29.36;27.19;101430.69;5068269;28;20119;-72
2022/07/19 01:08:44;;;;;;;4.68;2.85;;;;;;;29.35;27.10;101425.28;5048626;28;20504;-72
2022/07/19 01:11:11;;;;;;;7.03;2.58;;;;;;;29.32;26.95;101418.16;5067800;28;20050;-72
2022/07/19 01:13:41;;;;;;;5.93;2.70;;;;;;;29.32;27.06;101428.53;5066479;28;20048;-71
2022/07/19 01:16:09;;;;;;;3.70;2.60;;;;;;;29.28;27.33;101424.41;5067644;28;20048;-72
2022/07/19 01:18:37;;;;;;;4.88;2.53;;;;;;;29.24;27.23;101423.13;5055602;28;20128;-72
2022/07/19 01:21:05;;;;;;;4.65;2.67;;;;;;;29.21;27.48;101417.94;5066565;28;20123;-72
2022/07/19 01:23:35;;;;;;;7.43;2.88;;;;;;;29.19;27.31;101412.56;5067176;28;20042;-72
2022/07/19 01:26:03;;;;;;;5.75;2.60;;;;;;;29.12;27.20;101415.34;5067020;28;20067;-72
2022/07/19 01:28:30;;;;;;;4.68;2.70;;;;;;;29.09;27.40;101412.94;5054658;28;20048;-72
2022/07/19 01:30:58;;;;;;;5.85;2.90;;;;;;;29.07;27.56;101420.69;5065909;28;20049;-72
2022/07/19 01:33:26;;;;;;;4.30;2.72;;;;;;;29.03;27.75;101424.13;5076334;28;20376;-71
2022/07/19 01:35:54;;;;;;;5.13;2.70;;;;;;;29.00;27.52;101416.13;5076874;28;20131;-72
2022/07/19 01:38:22;;;;;;;6.50;3.20;;;;;;;28.96;27.69;101417.66;5066878;28;20536;-72
2022/07/19 01:40:51;;;;;;;6.82;3.00;;;;;;;28.95;27.77;101419.56;5062642;28;20037;-72
2022/07/19 01:43:19;;;;;;;4.40;2.53;;;;;;;28.90;27.94;101421.28;5067301;28;20528;-72
2022/07/19 01:45:47;;;;;;;5.93;2.90;;;;;;;28.86;27.69;101419.97;5066972;28;20131;-72
2022/07/19 01:48:16;;;;;;;5.45;3.20;;;;;;;28.84;27.92;101416.50;5066977;28;20205;-71
2022/07/19 01:50:43;;;;;;;7.28;2.97;;;;;;;28.79;27.87;101405.97;5066831;28;20036;-72
2022/07/19 01:53:11;;;;;;;5.75;2.90;;;;;;;28.77;28.03;101411.75;5069363;28;20049;-73
2022/07/19 01:55:39;;;;;;;4.70;2.95;;;;;;;28.73;27.77;101409.56;5066306;28;20557;-72
2022/07/19 01:58:09;;;;;;;5.15;3.08;;;;;;;28.72;27.90;101402.25;5066495;28;20127;-72
2022/07/19 02:00:36;;;;;;;4.32;2.67;;;;;;;28.67;28.04;101399.19;5066117;28;20048;-72
2022/07/19 02:03:04;;;;;;;4.78;2.85;;;;;;;28.64;28.01;101400.50;5058706;28;20482;-72
2022/07/19 02:05:32;;;;;;;3.95;2.50;;;;;;;28.63;27.92;101403.50;5063780;28;20040;-72
2022/07/19 02:08:01;;;;;;;5.18;2.88;;;;;;;28.61;28.03;101398.09;5074457;28;20036;-72
2022/07/19 02:10:30;;;;;;;4.30;2.70;;;;;;;28.57;28.35;101402.41;5068372;28;20045;-72
2022/07/19 02:12:58;;;;;;;4.97;2.67;;;;;;;28.55;28.38;101398.06;5073314;28;20140;-71
2022/07/19 02:15:27;;;;;;;4.70;2.63;;;;;;;28.54;28.55;101393.56;5066950;28;20062;-72
2022/07/19 02:17:56;;;;;;;6.88;2.70;;;;;;;28.49;28.32;101396.97;5067161;28;20119;-71
2022/07/19 02:20:24;;;;;;;4.63;2.60;;;;;;;28.45;28.54;101405.97;5066176;28;20040;-72
2022/07/19 02:22:52;;;;;;;4.05;2.40;;;;;;;28.43;28.47;101397.78;5071012;28;20036;-72
2022/07/19 02:25:20;;;;;;;4.75;2.70;;;;;;;28.39;28.21;101402.06;5058097;28;21515;-72
2022/07/19 02:27:48;;;;;;;5.22;2.60;;;;;;;28.37;28.56;101404.22;5069474;28;20040;-72
2022/07/19 02:30:17;;;;;;;4.57;2.50;;;;;;;28.34;28.69;101396.22;5066618;28;20047;-72
2022/07/19 02:32:46;;;;;;;4.60;2.65;;;;;;;28.33;28.73;101400.94;5069869;28;20151;-72
2022/07/19 02:35:14;;;;;;;5.07;2.88;;;;;;;28.29;28.69;101394.06;5069761;28;20412;-72
2022/07/19 02:37:42;;;;;;;5.20;2.90;;;;;;;28.27;28.86;101398.97;5052884;28;20045;-72
2022/07/19 02:40:11;;;;;;;5.05;2.85;;;;;;;28.25;28.63;101389.94;5064555;28;20076;-72
2022/07/19 02:42:40;;;;;;;5.75;3.00;;;;;;;28.23;28.85;101400.47;5069991;28;20068;-72
2022/07/19 02:45:08;;;;;;;4.60;2.75;;;;;;;28.21;28.51;101394.22;5069841;28;20475;-72
2022/07/19 02:47:38;;;;;;;5.53;2.95;;;;;;;28.18;28.46;101399.34;5070219;28;20048;-72
2022/07/19 02:50:08;;;;;;;7.00;3.28;;;;;;;28.18;28.84;101396.56;5069422;28;20528;-72
2022/07/19 02:52:36;;;;;;;5.13;2.95;;;;;;;28.13;28.86;101396.28;5069742;28;20106;-72
2022/07/19 02:55:05;;;;;;;4.55;2.95;;;;;;;28.11;28.82;101395.63;5069446;28;20048;-72
2022/07/19 02:57:33;;;;;;;5.50;2.90;;;;;;;28.08;28.66;101396.91;5070576;28;20044;-72
2022/07/19 03:00:01;;;;;;;4.57;2.88;;;;;;;28.07;28.72;101400.75;5071925;28;20055;-72
2022/07/19 03:02:29;;;;;;;4.35;2.75;;;;;;;28.04;29.19;101401.16;5070308;28;20386;-71
2022/07/19 03:04:57;;;;;;;5.32;2.92;;;;;;;28.02;28.99;101395.78;5069108;28;20040;-72
2022/07/19 03:07:26;;;;;;;5.55;3.13;;;;;;;28.03;29.11;101399.44;5069830;28;20055;-71
2022/07/19 03:09:54;;;;;;;5.30;3.03;;;;;;;27.98;29.01;101391.69;5051061;28;20051;-72
2022/07/19 03:12:22;;;;;;;5.32;2.95;;;;;;;27.95;29.07;101392.06;5056414;28;20079;-72
2022/07/19 03:14:50;;;;;;;5.07;2.70;;;;;;;27.94;29.28;101389.47;5075067;28;20049;-72
2022/07/19 03:17:18;;;;;;;4.20;3.00;;;;;;;27.91;29.33;101389.91;5056480;28;20071;-71
2022/07/19 03:19:46;;;;;;;4.78;2.83;;;;;;;27.89;29.55;101392.03;5071396;28;20131;-71
2022/07/19 03:22:14;;;;;;;4.88;2.78;;;;;;;27.88;29.23;101391.16;5069553;28;20036;-71
2022/07/19 03:24:43;;;;;;;4.60;2.50;;;;;;;27.87;29.39;101388.56;5068182;28;20105;-72
2022/07/19 03:27:11;;;;;;;5.15;2.58;;;;;;;27.84;29.59;101386.16;5051348;28;20057;-71
2022/07/19 03:29:39;;;;;;;4.63;2.70;;;;;;;27.83;29.29;101385.34;5067580;28;20056;-70
2022/07/19 03:32:07;;;;;;;4.97;3.03;;;;;;;27.81;29.32;101383.81;5069382;28;20041;-71
2022/07/19 03:34:35;;;;;;;4.80;2.85;;;;;;;27.80;29.41;101385.72;5068298;28;20086;-72
2022/07/19 03:37:03;;;;;;;5.70;2.95;;;;;;;27.77;29.79;101386.13;5052087;28;20328;-71
2022/07/19 03:39:31;;;;;;;4.65;2.90;;;;;;;27.76;29.58;101400.28;5050277;28;20055;-70
2022/07/19 03:42:00;;;;;;;4.57;2.83;;;;;;;27.76;29.85;101391.91;5068816;28;20068;-70
2022/07/19 03:44:28;;;;;;;4.40;3.00;;;;;;;27.71;29.78;101389.72;5065083;28;20412;-70
2022/07/19 03:46:56;;;;;;;4.35;2.92;;;;;;;27.69;29.98;101396.56;5056777;28;20048;-71
2022/07/19 03:49:24;;;;;;;4.30;2.83;;;;;;;27.66;29.85;101389.50;5066489;28;20068;-71
2022/07/19 03:51:52;;;;;;;4.05;2.90;;;;;;;27.64;29.98;101386.88;5057890;28;20128;-71
2022/07/19 03:54:20;;;;;;;5.32;2.90;;;;;;;27.63;29.68;101398.25;5066557;28;20222;-71
2022/07/19 03:56:48;;;;;;;5.30;3.42;;;;;;;27.59;29.61;101394.16;5069559;28;20056;-71
2022/07/19 03:59:17;;;;;;;4.40;2.90;;;;;;;27.60;29.86;101396.72;5075312;28;20044;-71
2022/07/19 04:01:45;;;;;;;3.72;2.83;;;;;;;27.54;30.06;101391.94;5068446;28;20401;-71
2022/07/19 04:04:13;;;;;;;5.25;3.08;;;;;;;27.52;29.94;101394.03;5058609;28;20064;-71
2022/07/19 04:06:41;;;;;;;7.22;3.28;;;;;;;27.50;29.96;101392.53;5063835;28;20113;-71
2022/07/19 04:09:09;;;;;;;7.22;2.97;;;;;;;27.48;30.11;101391.84;5060736;28;20049;-71
2022/07/19 04:11:37;;;;;;;6.13;3.40;;;;;;;27.46;30.00;101394.84;5068066;28;20050;-71
2022/07/19 04:14:05;;;;;;;5.90;2.72;;;;;;;27.45;29.71;101395.91;5068414;28;20128;-71
2022/07/19 04:16:35;;;;;;;4.45;3.15;;;;;;;27.46;29.68;101396.75;5069244;28;20056;-71
2022/07/19 04:19:03;;;;;;;3.97;2.75;;;;;;;27.43;29.92;101400.81;5067827;28;20127;-71
2022/07/19 04:21:31;;;;;;;4.45;2.75;;;;;;;27.42;29.82;101395.44;5067662;28;20120;-71
2022/07/19 04:23:59;;;;;;;5.85;2.90;;;;;;;27.41;29.77;101393.72;5068113;28;20049;-71
2022/07/19 04:26:29;;;;;;;4.75;3.28;;;;;;;27.40;30.12;101398.44;5068301;28;20053;-71
2022/07/19 04:28:57;;;;;;;4.13;2.70;;;;;;;27.40;29.82;101392.00;5067443;28;20159;-70
2022/07/19 04:31:24;;;;;;;5.25;2.97;;;;;;;27.40;29.82;101398.44;5068129;28;20044;-70
2022/07/19 04:33:54;;;;;;;5.18;2.80;;;;;;;27.41;30.02;101394.59;5067982;28;20135;-70
2022/07/19 04:36:22;;;;;;;5.63;3.00;;;;;;;27.39;30.18;101405.06;5068136;28;20420;-70
2022/07/19 04:38:50;;;;;;;5.10;3.00;;;;;;;27.39;30.19;101399.50;5067469;28;20047;-70
2022/07/19 04:41:17;;;;;;;6.00;3.33;;;;;;;27.38;29.92;101394.09;5064066;28;20059;-71
2022/07/19 04:43:45;;;;;;;5.70;2.97;;;;;;;27.37;30.26;101398.81;5055123;28;20037;-71
2022/07/19 04:46:13;;;;;;;5.40;2.88;;;;;;;27.36;30.23;101393.44;5066250;28;20048;-70
2022/07/19 04:48:41;;;;;;;4.05;2.58;;;;;;;27.37;30.13;101389.59;5067906;28;20553;-71
2022/07/19 04:51:11;;;;;;;5.40;2.90;;;;;;;27.39;29.84;101399.50;5067457;28;20405;-71
2022/07/19 04:53:39;;;;;;;4.43;2.78;;;;;;;27.38;29.85;101394.97;5067211;28;20036;-71
2022/07/19 04:56:07;;;;;;;4.32;2.38;;;;;;;27.40;30.14;101403.16;5067209;28;20075;-71
2022/07/19 04:58:35;;;;;;;4.00;2.80;;;;;;;27.40;29.70;101395.66;5062271;28;20045;-72
2022/07/19 05:01:03;;;;;;;4.30;2.55;;;;;;;27.42;29.77;101393.53;5045506;28;20044;-71
2022/07/19 05:03:31;;;;;;;3.90;2.50;;;;;;;27.44;29.80;101396.09;5061172;28;20060;-71
2022/07/19 05:05:59;;;;;;;4.15;2.63;;;;;;;27.46;30.11;101391.19;5067528;28;20044;-71
2022/07/19 05:08:28;;;;;;;4.65;2.38;;;;;;;27.52;29.61;101388.44;5049389;28;20051;-71
2022/07/19 05:10:56;;;;;;;5.03;2.90;;;;;;;27.53;29.72;101381.84;5067925;28;20114;-71
2022/07/19 05:13:24;;;;;;;4.75;2.30;;;;;;;27.60;29.94;101393.06;5066643;28;20040;-71
2022/07/19 05:15:52;;;;;;;3.85;2.72;;;;;;;27.70;30.07;101395.50;5068377;28;20040;-71
2022/07/19 05:18:20;;;;;;;4.53;2.60;;;;;;;27.81;30.09;101386.59;5066951;28;20094;-70
2022/07/19 05:20:48;;;;;;;4.72;3.13;;;;;;;27.97;29.54;101389.09;5068107;28;20040;-70
2022/07/19 05:23:16;;;;;;;4.28;2.78;;;;;;;28.14;29.58;101390.50;5066285;28;20162;-70
2022/07/19 05:25:45;;;;;;;4.93;2.85;;;;;;;28.37;29.49;101393.03;5061456;28;20049;-71
2022/07/19 05:28:13;;;;;;;6.32;2.45;;;;;;;28.58;29.36;101390.13;5065071;28;20330;-71
2022/07/19 05:30:43;;;;;;;4.78;2.92;;;;;;;28.81;29.27;101392.66;5066540;28;20131;-71
2022/07/19 05:33:11;;;;;;;4.97;2.70;;;;;;;29.05;28.75;101391.22;5067307;28;20040;-71
2022/07/19 05:35:39;;;;;;;4.75;2.47;;;;;;;29.29;28.39;101392.56;5066429;28;20135;-71
2022/07/19 05:38:07;;;;;;;4.07;2.40;;;;;;;29.53;27.59;101397.59;5049297;28;20098;-71
2022/07/19 05:40:37;;;;;;;3.95;2.60;;;;;;;29.76;27.81;101395.22;5065950;28;20075;-71
2022/07/19 05:43:06;;;;;;;5.63;2.88;;;;;;;30.04;27.29;101396.97;5067488;28;20077;-71
2022/07/19 05:45:34;;;;;;;4.00;2.42;;;;;;;30.23;27.18;101393.25;5068156;28;20051;-71
2022/07/19 05:48:01;;;;;;;4.93;2.78;;;;;;;30.44;26.68;101401.41;5080835;28;20051;-72
2022/07/19 05:50:29;;;;;;;4.65;2.30;;;;;;;30.64;26.37;101396.63;5066677;28;20044;-70
2022/07/19 05:52:57;;;;;;;3.55;2.33;;;;;;;30.85;25.96;101397.44;5067072;28;20051;-71
2022/07/19 05:55:25;;;;;;;4.82;2.15;;;;;;;31.02;25.69;101395.84;5067262;28;20054;-71
2022/07/19 05:57:53;;;;;;;3.97;2.30;;;;;;;31.20;25.45;101393.19;5066162;28;20041;-71
2022/07/19 06:00:22;;;;;;;4.20;2.33;;;;;;;31.39;25.13;101394.09;5066075;28;20036;-71
2022/07/19 06:02:50;;;;;;;6.28;2.70;;;;;;;31.52;25.05;101394.03;5067189;28;20131;-70
2022/07/19 06:05:18;;;;;;;3.92;2.28;;;;;;;31.68;24.70;101396.31;5067507;28;20139;-71
2022/07/19 06:07:46;;;;;;;3.70;2.25;;;;;;;31.82;24.29;101394.25;5071285;28;20056;-71
2022/07/19 06:10:14;;;;;;;5.82;2.50;;;;;;;31.95;23.96;101393.28;5070455;28;20086;-70
2022/07/19 06:12:42;;;;;;;4.88;2.70;;;;;;;32.05;23.80;101391.66;5053417;28;20136;-70
2022/07/19 06:15:11;;;;;;;3.90;2.08;;;;;;;32.19;23.65;101384.00;5047745;28;20136;-70
2022/07/19 06:17:40;;;;;;;4.45;2.20;;;;;;;32.32;23.30;101386.66;5063208;28;20043;-74
2022/07/19 06:20:10;;;;;;;4.80;2.03;;;;;;;32.41;23.17;101388.06;5069904;28;20068;-70
2022/07/19 06:22:38;;;;;;;4.00;2.00;;;;;;;32.52;23.33;101386.44;5052751;28;20074;-71
2022/07/19 06:25:07;;;;;;;4.57;2.20;;;;;;;32.61;23.10;101395.44;5070200;28;20050;-69
2022/07/19 06:27:35;;;;;;;3.70;2.40;;;;;;;32.67;22.98;101392.53;5071852;28;20079;-68
2022/07/19 06:30:04;;;;;;;4.88;2.20;;;;;;;32.74;22.53;101398.97;5054591;28;20516;-73
2022/07/19 06:32:32;;;;;;;5.75;2.20;;;;;;;32.78;22.95;101397.38;5070941;28;20116;-72
2022/07/19 06:35:01;;;;;;;3.55;2.22;;;;;;;32.87;22.79;101406.34;5070700;28;20048;-73
2022/07/19 06:37:29;;;;;;;3.10;1.95;;;;;;;32.90;22.38;101402.22;5063865;28;20493;-74
2022/07/19 06:39:57;;;;;;;3.83;2.13;;;;;;;32.97;23.00;101400.19;5070786;28;20067;-73
2022/07/19 06:42:25;;;;;;;3.58;2.00;;;;;;;33.03;22.73;101402.88;5070847;28;20601;-73
2022/07/19 06:44:53;;;;;;;5.60;1.98;;;;;;;33.12;23.10;101406.25;5052645;28;20056;-73
2022/07/19 06:47:21;;;;;;;4.20;2.08;;;;;;;33.20;22.85;101411.53;5067032;28;20391;-74
2022/07/19 06:49:49;;;;;;;3.53;1.95;;;;;;;33.29;22.38;101406.47;5070345;28;20047;-72
2022/07/19 06:52:18;;;;;;;4.70;1.77;;;;;;;33.40;22.31;101402.84;5053213;28;20599;-71
2022/07/19 06:54:46;;;;;;;3.30;1.90;;;;;;;33.45;22.05;101403.81;5069625;28;20050;-71
2022/07/19 06:57:14;;;;;;;5.15;2.22;;;;;;;33.53;21.49;101414.75;5071830;28;20123;-71
2022/07/19 06:59:41;;;;;;;3.47;2.10;;;;;;;33.60;21.43;101406.22;5077800;28;20056;-70
2022/07/19 07:02:09;;;;;;;2.85;1.85;;;;;;;33.67;20.83;101412.59;5074720;28;20044;-72
2022/07/19 07:04:37;;;;;;;3.85;2.08;;;;;;;33.74;21.00;101406.88;5090382;28;20441;-71
2022/07/19 07:07:13;;;;;;;3.83;1.92;;;;;;;33.80;20.52;101411.53;5072972;28;20048;-72
2022/07/19 07:09:42;;;;;;;3.85;1.90;;;;;;;33.87;19.79;101413.16;5090915;28;20127;-72
2022/07/19 07:12:11;;;;;;;4.10;1.90;;;;;;;33.90;20.12;101406.16;5090814;28;20040;-71
2022/07/19 07:14:38;;;;;;;4.43;2.30;;;;;;;33.94;20.51;101413.03;5090680;28;20151;-72
2022/07/19 07:17:07;;;;;;;3.40;1.92;;;;;;;33.98;20.13;101411.44;5071265;28;20097;-71
2022/07/19 07:19:35;;;;;;;5.10;1.90;;;;;;;34.03;20.31;101411.56;5090053;28;20056;-72
2022/07/19 07:22:03;;;;;;;5.85;1.95;;;;;;;34.09;20.25;101409.75;5091094;28;20046;-71
2022/07/19 07:24:31;;;;;;;5.78;2.47;;;;;;;34.14;19.71;101412.69;5071541;28;20044;-72
2022/07/19 07:27:03;;;;;;;3.47;1.80;;;;;;;34.22;19.85;101407.53;5052304;28;20666;-71
2022/07/19 07:29:30;;;;;;;5.72;1.63;;;;;;;34.25;19.76;101406.22;5069105;28;20117;-72
2022/07/19 07:31:59;;;;;;;5.18;2.00;;;;;;;34.32;19.62;101409.78;5052704;28;20564;-73
2022/07/19 07:34:27;;;;;;;3.70;2.05;;;;;;;34.36;19.04;101405.34;5068832;28;20049;-71
2022/07/19 07:37:03;;;;;;;3.65;1.58;;;;;;;34.42;19.33;101410.03;5070655;28;20060;-72
2022/07/19 07:39:31;;;;;;;6.28;2.15;;;;;;;34.48;18.93;101409.03;5069502;28;20044;-71
2022/07/19 07:41:59;;;;;;;3.90;2.00;;;;;;;34.55;18.59;101406.06;5070018;28;20497;-71
2022/07/19 07:44:41;;;;;;;3.38;1.65;;;;;;;34.64;18.95;101410.22;5069131;28;20126;-72
2022/07/19 07:47:09;;;;;;;3.15;1.63;;;;;;;34.68;18.82;101406.66;5070335;28;20136;-73
2022/07/19 07:49:37;;;;;;;4.57;2.25;;;;;;;34.77;18.33;101400.66;5084204;28;20044;-72
2022/07/19 07:52:06;;;;;;;3.97;1.77;;;;;;;34.84;18.73;101407.88;5090387;28;20035;-72
2022/07/19 07:54:34;;;;;;;4.65;1.90;;;;;;;34.91;18.63;101407.75;5071123;28;20047;-71
2022/07/19 07:57:03;;;;;;;3.42;1.85;;;;;;;34.98;18.57;101395.19;5090323;28;20048;-72
2022/07/19 07:59:31;;;;;;;5.15;2.28;;;;;;;35.07;18.44;101407.81;5075554;28;20098;-72
2022/07/19 08:02:00;;;;;;;4.35;1.80;;;;;;;35.19;17.99;101402.09;5052104;28;20453;-72
2022/07/19 08:04:29;;;;;;;4.75;2.05;;;;;;;35.25;18.22;101397.47;5050955;28;20045;-73
2022/07/19 08:06:57;;;;;;;3.90;2.40;;;;;;;35.32;17.89;101399.03;5069429;28;20041;-71
2022/07/19 08:09:25;;;;;;;5.00;1.92;;;;;;;35.42;17.40;101395.50;5069761;28;20544;-73
2022/07/19 08:11:53;;;;;;;6.13;1.80;;;;;;;35.49;17.91;101393.41;5051696;28;20040;-72
2022/07/19 08:14:22;;;;;;;3.25;1.75;;;;;;;35.59;17.61;101393.56;5054495;28;20088;-72
2022/07/19 08:16:50;;;;;;;3.30;1.90;;;;;;;35.65;17.18;101389.75;5048856;28;20445;-73
2022/07/19 08:19:20;;;;;;;5.45;2.00;;;;;;;35.76;17.50;101397.31;5032312;28;20041;-72
2022/07/19 08:21:47;;;;;;;3.40;1.85;;;;;;;35.82;17.54;101382.16;5050269;28;20045;-72
2022/07/19 08:24:16;;;;;;;4.05;1.90;;;;;;;35.92;17.48;101387.09;5048331;28;20045;-72
2022/07/19 08:26:43;;;;;;;9.07;2.10;;;;;;;36.02;16.96;101381.63;5049245;28;20485;-72
2022/07/19 08:29:11;;;;;;;3.97;1.95;;;;;;;36.13;17.08;101382.66;5067903;28;20048;-72
2022/07/19 08:31:40;;;;;;;5.43;2.15;;;;;;;36.24;16.60;101376.03;5051740;28;20068;-72
2022/07/19 08:34:09;;;;;;;3.10;1.88;;;;;;;36.36;16.26;101381.59;5073262;28;20055;-72
2022/07/19 08:36:38;;;;;;;4.47;1.90;;;;;;;36.50;16.43;101369.66;5089771;28;20048;-72
2022/07/19 08:39:06;;;;;;;5.75;1.98;;;;;;;36.59;16.14;101370.03;5070789;28;20044;-71
2022/07/19 08:41:35;;;;;;;4.70;2.20;;;;;;;36.69;16.41;101373.06;5089673;28;20062;-71
2022/07/19 08:44:05;;;;;;;3.30;1.90;;;;;;;36.81;16.31;101368.13;5088490;28;20055;-72
2022/07/19 08:46:33;;;;;;;4.40;2.25;;;;;;;36.90;16.04;101365.66;5088826;28;20048;-72
2022/07/19 08:49:02;;;;;;;4.78;2.10;;;;;;;37.03;16.09;101376.59;5086479;28;20055;-72
2022/07/19 08:51:30;;;;;;;4.35;2.00;;;;;;;37.12;15.95;101362.81;5067764;28;20433;-72
2022/07/19 08:54:01;;;;;;;2.92;1.95;;;;;;;37.24;15.63;101367.22;5068355;28;20044;-72
2022/07/19 08:59:14;;;;;;;5.10;1.95;;;;;;;37.43;15.35;101362.03;5073084;28;20520;-73
2022/07/19 09:01:42;;;;;;;4.13;1.88;;;;;;;37.54;15.57;101361.00;5089259;28;20249;-73
2022/07/19 09:04:14;;;;;;;5.70;2.22;;;;;;;37.67;14.82;101362.56;5087824;28;20276;-72
2022/07/19 09:06:45;;;;;;;4.25;1.95;;;;;;;37.76;14.58;101366.63;5082338;28;20044;-73
2022/07/19 09:09:16;;;;;;;4.80;2.03;;;;;;;37.85;14.40;101367.81;5088487;28;20044;-71
2022/07/19 09:11:50;;;;;;;3.05;2.15;;;;;;;37.92;14.86;101368.44;5071966;28;20501;-73
2022/07/19 09:14:21;;;;;;;3.53;2.20;;;;;;;38.01;14.37;101358.31;5087573;28;20036;-72
2022/07/19 09:16:57;;;;;;;2.97;1.90;;;;;;;38.09;14.78;101354.13;5088885;28;20044;-72
2022/07/19 09:19:26;;;;;;;3.42;2.08;;;;;;;38.17;14.20;101355.59;5087001;28;20044;-74
2022/07/19 09:22:00;;;;;;;4.07;2.40;;;;;;;38.24;14.57;101359.91;5067563;28;20055;-72
2022/07/19 09:24:36;;;;;;;3.58;2.03;;;;;;;38.34;14.66;101350.59;5068107;28;20054;-73
2022/07/19 09:27:07;;;;;;;3.42;1.90;;;;;;;38.41;14.68;101356.88;5069410;28;20044;-72
2022/07/19 09:29:36;;;;;;;4.40;2.00;;;;;;;38.50;13.83;101362.88;5067095;28;20163;-73
2022/07/19 09:32:08;;;;;;;3.72;2.00;;;;;;;38.61;13.92;101357.03;5066673;28;20071;-72
2022/07/19 09:34:38;;;;;;;4.07;2.10;;;;;;;38.68;13.74;101354.78;5084257;28;20114;-72
2022/07/19 09:37:15;;;;;;;3.88;2.05;;;;;;;38.79;13.29;101342.31;5067819;28;20400;-72
2022/07/19 09:39:48;;;;;;;3.20;1.77;;;;;;;38.86;13.49;101347.75;5066346;28;20040;-72
2022/07/19 09:42:20;;;;;;;3.00;1.80;;;;;;;38.95;13.96;101351.81;5050726;28;20078;-72
2022/07/19 09:44:57;;;;;;;;;;;;;;;38.72;14.34;101346.56;5047155;28;20037;-72
2022/07/19 09:47:32;;;;;;;2.85;1.80;;;;;;;39.12;13.50;101348.72;5048454;28;19920;-72
2022/07/19 09:50:00;;;;;;;3.55;1.80;;;;;;;39.19;13.09;101340.78;5057039;28;20044;-72
2022/07/19 09:52:28;;;;;;;3.67;1.98;;;;;;;39.27;12.88;101350.75;5068423;28;20492;-72
2022/07/19 09:55:09;;;;;;;3.13;1.50;;;;;;;39.38;12.15;101332.53;5067481;28;20059;-72
2022/07/19 09:57:40;;;;;;;3.70;1.85;;;;;;;39.41;12.32;101335.72;5067957;28;20044;-72
2022/07/19 10:00:10;;;;;;;3.50;1.95;;;;;;;39.45;13.06;101328.31;5060481;28;20049;-73
2022/07/19 10:02:41;;;;;;;3.45;1.98;;;;;;;39.53;12.37;101333.44;5050092;28;20080;-72
2022/07/19 10:05:10;;;;;;;;;;;;;;;39.28;13.69;101324.88;5067610;28;20040;-72
2022/07/19 10:07:39;;;;;;;3.25;1.70;;;;;;;39.62;13.02;101330.88;5068157;28;19966;-72
2022/07/19 10:10:11;;;;;;;4.07;1.92;;;;;;;39.77;12.51;101333.75;5082280;28;20059;-72
2022/07/19 10:12:40;;;;;;;5.18;1.95;;;;;;;39.81;12.38;101317.81;5078608;28;20102;-72
2022/07/19 10:15:10;;;;;;;3.30;1.95;;;;;;;39.90;13.01;101327.50;5067129;28;20045;-72
2022/07/19 10:17:44;;;;;;;3.45;1.92;;;;;;;40.00;12.21;101329.47;5077965;28;20044;-72
2022/07/19 10:20:16;;;;;;;3.13;1.90;;;;;;;40.08;11.74;101326.03;5087493;28;20067;-72
2022/07/19 10:22:45;;;;;;;2.47;1.67;;;;;;;40.12;11.99;101315.78;5088329;28;20431;-73
2022/07/19 10:25:17;;;;;;;4.22;1.60;;;;;;;40.20;12.41;101300.97;5086752;28;20123;-73
2022/07/19 10:27:46;;;;;;;;;;;;;;;39.96;12.68;101305.56;5087896;28;20132;-73
2022/07/19 10:30:24;;;;;;;3.97;1.92;;;;;;;40.34;12.10;101314.63;5066304;28;19920;-72
2022/07/19 10:32:55;;;;;;;3.22;2.03;;;;;;;40.42;12.05;101306.34;5050392;28;20049;-72
2022/07/19 10:35:28;;;;;;;3.63;2.00;;;;;;;40.48;12.01;101304.31;5070021;28;20045;-72
2022/07/19 10:38:07;;;;;;;4.47;1.70;;;;;;;40.61;11.72;101300.84;5070278;28;20046;-72
2022/07/19 10:40:41;;;;;;;3.38;2.00;;;;;;;40.67;11.54;101294.88;5048868;28;20632;-72
2022/07/19 10:43:11;;;;;;;2.92;1.80;;;;;;;40.74;11.52;101290.84;5067068;28;20072;-73
2022/07/19 10:45:40;;;;;;;3.90;1.98;;;;;;;40.81;11.74;101292.22;5066595;28;20033;-72
2022/07/19 10:48:11;;;;;;;3.40;1.90;;;;;;;40.89;11.00;101294.47;5068025;28;20048;-73
2022/07/19 10:50:48;;;;;;;3.85;1.80;;;;;;;40.97;11.46;101287.28;5066114;28;20040;-71
2022/07/19 10:53:56;;;;;;;3.05;1.77;;;;;;;41.00;11.68;101281.88;5060175;28;20120;-73
2022/07/19 10:56:28;;;;;;;2.53;1.70;;;;;;;41.10;11.33;101280.13;5060207;28;20053;-73
2022/07/19 10:58:58;;;;;;;3.33;1.70;;;;;;;41.17;11.42;101274.94;5068571;28;20049;-71
2022/07/19 11:01:28;;;;;;;4.25;2.10;;;;;;;41.20;10.69;101280.88;5070697;28;20028;-73
2022/07/19 11:04:24;;;;;;;4.53;2.00;;;;;;;41.25;10.63;101277.16;5069540;28;20452;-73
2022/07/19 11:07:10;;;;;;;4.15;1.70;;;;;;;41.30;11.21;101266.56;5070397;28;20040;-73
2022/07/19 11:09:47;;;;;;;2.95;1.95;;;;;;;41.35;10.57;101263.66;5050630;28;20045;-72
2022/07/19 11:12:25;;;;;;;3.25;1.90;;;;;;;41.39;10.58;101258.22;5070284;28;20485;-73
2022/07/19 11:14:53;;;;;;;4.47;1.60;;;;;;;41.38;10.27;101242.25;5051627;28;20041;-72
2022/07/19 11:17:41;;;;;;;3.30;1.90;;;;;;;41.39;10.80;101255.38;5069119;28;20040;-71
2022/07/19 11:20:11;;;;;;;3.83;1.80;;;;;;;41.46;9.84;101252.16;5068217;28;20058;-72
2022/07/19 11:22:41;;;;;;;2.95;1.70;;;;;;;41.45;10.27;101248.47;5070143;28;20044;-73
2022/07/19 11:25:11;;;;;;;3.05;1.65;;;;;;;41.47;9.78;101249.03;5068652;28;20048;-73
2022/07/19 11:27:43;;;;;;;3.22;1.70;;;;;;;41.50;9.59;101242.72;5069428;28;20091;-73
2022/07/19 11:30:12;;;;;;;3.05;1.83;;;;;;;41.48;9.79;101236.47;5061774;28;20323;-72
2022/07/19 11:32:42;;;;;;;2.92;1.90;;;;;;;41.48;9.66;101233.63;5069832;28;20119;-73
2022/07/19 11:35:14;;;;;;;3.42;1.88;;;;;;;41.48;10.01;101232.78;5073419;28;20040;-73
2022/07/19 11:37:43;;;;;;;4.57;1.77;;;;;;;41.49;9.56;101229.63;5074098;28;20049;-73
2022/07/19 11:40:13;;;;;;;2.95;1.83;;;;;;;41.54;9.64;101232.44;5068776;28;20049;-74